Time;durP1;ratioP1;P1;durP2;ratioP2;P2;SDS_P1;SDS_P2;PMS_P1;PMS_P2;Temp;Humidity;BMP_temperature;BMP_pressure;BME280_temperature;BME280_humidity;BME280_pressure;Samples;Min_cycle;Max_cycle;Signal;HPM_P1;HPM_P2
2023/02/17 00:01:25;;;;;;;33.70;20.88;;;4.90;99.90;;;;;;4924961;29;20588;-80
2023/02/17 00:03:53;;;;;;;39.20;23.35;;;4.60;99.90;;;;;;4919095;29;20326;-78
2023/02/17 00:06:23;;;;;;;36.22;21.95;;;4.50;99.90;;;;;;4928559;29;20208;-81
2023/02/17 00:08:51;;;;;;;33.33;22.00;;;4.90;99.90;;;;;;4923284;29;20201;-79
2023/02/17 00:11:19;;;;;;;29.77;19.25;;;5.00;99.90;;;;;;4926302;29;20227;-79
2023/02/17 00:13:46;;;;;;;33.17;19.60;;;5.10;99.90;;;;;;4934890;29;20274;-79
2023/02/17 00:16:22;;;;;;;29.83;20.10;;;5.00;99.90;;;;;;4914191;29;20216;-79
2023/02/17 00:18:55;;;;;;;36.63;22.35;;;5.10;99.90;;;;;;4920813;29;20200;-79
2023/02/17 00:21:24;;;;;;;37.15;21.70;;;5.20;99.90;;;;;;4921699;29;20215;-77
2023/02/17 00:23:52;;;;;;;32.78;20.73;;;5.30;99.90;;;;;;4920424;29;20473;-80
2023/02/17 00:26:20;;;;;;;41.17;20.67;;;5.40;99.90;;;;;;4926375;29;20205;-80
2023/02/17 00:28:48;;;;;;;45.05;21.40;;;5.70;99.90;;;;;;4921489;29;20201;-79
2023/02/17 00:31:18;;;;;;;28.90;20.10;;;5.70;99.90;;;;;;4927693;29;20232;-79
2023/02/17 00:33:45;;;;;;;34.35;23.20;;;5.70;99.90;;;;;;4927990;29;20247;-79
2023/02/17 00:36:18;;;;;;;35.22;22.40;;;5.70;99.90;;;;;;4927493;29;20217;-79
2023/02/17 00:38:48;;;;;;;35.90;20.65;;;5.70;99.90;;;;;;4916764;29;20216;-79
2023/02/17 00:41:17;;;;;;;51.22;22.50;;;5.80;99.90;;;;;;4927205;29;20255;-80
2023/02/17 00:43:46;;;;;;;34.67;20.90;;;5.90;99.90;;;;;;4921771;29;20212;-79
2023/02/17 00:46:13;;;;;;;39.25;21.02;;;5.80;99.90;;;;;;4918496;29;20200;-79
2023/02/17 00:48:40;;;;;;;37.22;19.25;;;5.90;99.90;;;;;;4920017;29;20200;-80
2023/02/17 00:51:07;;;;;;;34.25;19.90;;;6.00;99.90;;;;;;4927256;29;20200;-79
2023/02/17 00:53:35;;;;;;;30.67;20.60;;;6.00;99.90;;;;;;4926226;29;20211;-80
2023/02/17 00:56:03;;;;;;;39.13;20.58;;;6.10;99.90;;;;;;4919713;29;20552;-80
2023/02/17 00:58:30;;;;;;;35.25;21.58;;;6.30;99.90;;;;;;4919869;29;20204;-80
2023/02/17 01:00:58;;;;;;;39.78;20.40;;;6.40;99.90;;;;;;4926839;29;20229;-79
2023/02/17 01:03:26;;;;;;;31.73;20.38;;;7.30;99.90;;;;;;4926547;29;20548;-80
2023/02/17 01:05:54;;;;;;;39.03;20.60;;;6.50;99.90;;;;;;4922432;29;20205;-80
2023/02/17 01:08:22;;;;;;;32.78;18.35;;;6.40;99.90;;;;;;4924299;29;20503;-79
2023/02/17 01:10:49;;;;;;;46.00;20.38;;;6.50;99.90;;;;;;4927414;29;20201;-79
2023/02/17 01:13:17;;;;;;;30.80;19.08;;;6.60;99.90;;;;;;4924984;29;20273;-79
2023/02/17 01:15:51;;;;;;;41.30;21.58;;;6.50;99.90;;;;;;4923273;29;20204;-79
2023/02/17 01:18:20;;;;;;;32.63;19.23;;;6.40;99.90;;;;;;4932755;29;20200;-80
2023/02/17 01:20:48;;;;;;;28.60;17.42;;;6.40;99.90;;;;;;4933087;29;20208;-80
2023/02/17 01:23:15;;;;;;;32.10;20.60;;;6.40;99.90;;;;;;4927718;29;20227;-79
2023/02/17 01:25:43;;;;;;;34.72;18.80;;;6.50;99.90;;;;;;4932864;29;20204;-79
2023/02/17 01:28:17;;;;;;;32.88;20.48;;;6.60;99.90;;;;;;4923954;29;20201;-78
2023/02/17 01:30:43;;;;;;;35.80;20.80;;;6.70;99.90;;;;;;4929905;29;20200;-82
2023/02/17 01:33:10;;;;;;;34.72;21.50;;;6.60;99.90;;;;;;4939648;29;20280;-78
2023/02/17 01:35:37;;;;;;;29.60;19.55;;;6.60;99.90;;;;;;4939812;29;20465;-77
2023/02/17 01:38:04;;;;;;;31.33;19.38;;;6.70;99.90;;;;;;4933840;29;20196;-78
2023/02/17 01:40:31;;;;;;;29.70;18.73;;;6.60;99.90;;;;;;4936253;29;20519;-77
2023/02/17 01:42:58;;;;;;;35.92;17.67;;;6.60;99.90;;;;;;4948512;28;20216;-79
2023/02/17 01:45:39;;;;;;;29.63;18.52;;;6.60;99.90;;;;;;4927935;29;20225;-78
2023/02/17 01:48:13;;;;;;;29.27;19.52;;;6.60;99.90;;;;;;4936554;29;20188;-80
2023/02/17 01:50:51;;;;;;;31.58;18.50;;;6.90;99.90;;;;;;4927473;29;20204;-78
2023/02/17 01:53:23;;;;;;;32.85;19.00;;;6.90;99.90;;;;;;4927048;29;20267;-78
2023/02/17 01:55:51;;;;;;;25.80;16.38;;;6.80;99.90;;;;;;4933590;29;20200;-79
2023/02/17 01:58:21;;;;;;;28.70;17.48;;;6.80;99.90;;;;;;4936396;29;20216;-80
2023/02/17 02:00:50;;;;;;;27.38;18.15;;;6.70;99.90;;;;;;4936827;29;20197;-77
2023/02/17 02:03:18;;;;;;;30.25;17.05;;;6.70;99.90;;;;;;4933976;29;20229;-78
2023/02/17 02:05:46;;;;;;;25.02;16.60;;;6.80;99.90;;;;;;4935621;29;20193;-80
2023/02/17 02:08:13;;;;;;;35.13;19.80;;;7.00;99.90;;;;;;4934363;29;20264;-79
2023/02/17 02:10:41;;;;;;;33.63;18.83;;;7.10;99.90;;;;;;4929371;29;20226;-79
2023/02/17 02:13:08;;;;;;;29.67;18.52;;;7.10;99.90;;;;;;4918127;29;20268;-81
2023/02/17 02:15:44;;;;;;;33.15;19.08;;;7.00;99.90;;;;;;4926199;29;20280;-80
2023/02/17 02:18:46;;;;;;;25.70;16.88;;;7.10;99.90;;;;;;4919381;29;20189;-81
2023/02/17 02:21:55;;;;;;;25.90;16.27;;;7.00;99.90;;;;;;4923214;29;20308;-79
2023/02/17 02:24:58;;;;;;;28.63;16.88;;;6.90;99.90;;;;;;4915343;29;20251;-81
2023/02/17 02:27:49;;;;;;;27.58;17.27;;;6.80;99.90;;;;;;4917025;29;20259;-80
2023/02/17 02:30:37;;;;;;;32.40;21.40;;;6.60;99.90;;;;;;4925001;29;20254;-79
2023/02/17 02:33:27;;;;;;;33.10;17.60;;;6.60;99.90;;;;;;4918288;29;20232;-80
2023/02/17 02:36:18;;;;;;;26.83;16.95;;;6.70;99.90;;;;;;4924400;29;20200;-80
2023/02/17 02:39:04;;;;;;;30.85;18.90;;;6.70;99.90;;;;;;4916421;29;20252;-80
2023/02/17 02:41:39;;;;;;;27.20;17.60;;;6.70;99.90;;;;;;4914414;29;20279;-79
2023/02/17 02:44:08;;;;;;;31.50;18.60;;;6.80;99.90;;;;;;4913113;29;20217;-80
2023/02/17 02:46:35;;;;;;;35.35;20.20;;;6.90;99.90;;;;;;4925443;29;20252;-80
2023/02/17 02:49:03;;;;;;;31.35;17.15;;;6.90;99.90;;;;;;4920326;29;20204;-80
2023/02/17 02:51:52;;;;;;;29.10;17.17;;;7.50;99.90;;;;;;4912426;29;20287;-80
2023/02/17 02:55:00;;;;;;;30.50;18.75;;;6.90;99.90;;;;;;4922336;29;20205;-77
2023/02/17 02:57:33;;;;;;;27.58;18.38;;;6.90;99.90;;;;;;4904322;29;20208;-79
2023/02/17 03:00:06;;;;;;;30.02;18.70;;;7.20;99.90;;;;;;4914498;29;20429;-79
2023/02/17 03:02:45;;;;;;;27.90;15.90;;;7.10;99.90;;;;;;4923093;29;20255;-79
2023/02/17 03:05:31;;;;;;;30.83;18.10;;;7.00;99.90;;;;;;4925849;29;20207;-80
2023/02/17 03:08:18;;;;;;;27.63;16.90;;;7.20;99.90;;;;;;4920933;29;20245;-79
2023/02/17 03:10:47;;;;;;;32.83;19.10;;;7.10;99.90;;;;;;4914620;29;20229;-79
2023/02/17 03:13:16;;;;;;;27.73;16.13;;;6.90;99.90;;;;;;4919522;29;20232;-78
2023/02/17 03:15:44;;;;;;;32.20;18.90;;;6.90;99.90;;;;;;4914692;29;20200;-78
2023/02/17 03:18:11;;;;;;;28.48;16.08;;;7.20;99.90;;;;;;4921057;29;20250;-78
2023/02/17 03:20:50;;;;;;;33.50;18.90;;;7.30;99.90;;;;;;4925278;29;20374;-79
2023/02/17 03:23:18;;;;;;;29.77;17.90;;;7.30;99.90;;;;;;4917024;29;20533;-77
2023/02/17 03:25:46;;;;;;;29.23;17.52;;;7.00;99.90;;;;;;4920189;29;20247;-80
2023/02/17 03:28:13;;;;;;;27.30;16.98;;;7.00;99.90;;;;;;4929702;29;20204;-79
2023/02/17 03:30:41;;;;;;;24.80;14.73;;;6.90;99.90;;;;;;4915845;29;20433;-79
2023/02/17 03:33:08;;;;;;;29.95;17.65;;;7.00;99.90;;;;;;4923414;29;20272;-79
2023/02/17 03:35:34;;;;;;;28.15;16.13;;;6.90;99.90;;;;;;4921331;29;20221;-82
2023/02/17 03:38:03;;;;;;;30.13;18.95;;;7.00;99.90;;;;;;4928631;29;20252;-81
2023/02/17 03:40:30;;;;;;;28.00;17.60;;;6.90;99.90;;;;;;4927420;29;20252;-78
2023/02/17 03:42:57;;;;;;;32.08;19.95;;;6.70;99.90;;;;;;4930216;29;20212;-78
2023/02/17 03:45:24;;;;;;;33.28;18.35;;;6.50;99.90;;;;;;4920496;29;20204;-80
2023/02/17 03:47:51;;;;;;;30.40;16.75;;;6.40;99.90;;;;;;4912677;29;20217;-79
2023/02/17 03:50:18;;;;;;;28.73;17.60;;;6.70;99.90;;;;;;4920662;29;20548;-80
2023/02/17 03:52:45;;;;;;;27.48;17.45;;;6.90;99.90;;;;;;4929208;29;20224;-79
2023/02/17 03:55:12;;;;;;;30.02;18.05;;;6.90;99.90;;;;;;4932307;29;20429;-80
2023/02/17 03:57:39;;;;;;;34.58;19.02;;;6.90;99.90;;;;;;4925238;29;20192;-80
2023/02/17 04:00:08;;;;;;;32.25;18.02;;;6.90;99.90;;;;;;4919021;29;20224;-80
2023/02/17 04:02:35;;;;;;;28.73;18.10;;;6.90;99.90;;;;;;4928800;29;20212;-80
2023/02/17 04:05:02;;;;;;;33.75;19.15;;;6.80;99.90;;;;;;4920567;29;20457;-80
2023/02/17 04:07:30;;;;;;;25.58;16.85;;;6.40;99.90;;;;;;4920423;29;20225;-78
2023/02/17 04:09:57;;;;;;;27.70;17.83;;;6.30;99.90;;;;;;4921107;29;20379;-80
2023/02/17 04:12:23;;;;;;;32.70;18.40;;;6.30;99.90;;;;;;4920334;29;20300;-78
2023/02/17 04:14:50;;;;;;;30.55;18.08;;;6.20;99.90;;;;;;4920456;29;20204;-81
2023/02/17 04:17:18;;;;;;;32.33;19.30;;;6.30;99.90;;;;;;4920092;29;20204;-78
2023/02/17 04:19:44;;;;;;;29.05;19.35;;;6.30;99.90;;;;;;4927944;29;20226;-79
2023/02/17 04:22:12;;;;;;;31.58;18.33;;;6.00;99.90;;;;;;4920557;29;20534;-79
2023/02/17 04:24:39;;;;;;;32.05;18.73;;;6.60;99.90;;;;;;4918269;29;20204;-79
2023/02/17 04:27:06;;;;;;;28.35;18.70;;;5.80;99.90;;;;;;4918575;29;20200;-79
2023/02/17 04:29:33;;;;;;;32.45;18.67;;;5.90;99.90;;;;;;4926928;29;20437;-79
2023/02/17 04:32:00;;;;;;;27.20;17.17;;;5.90;99.90;;;;;;4918844;29;20405;-79
2023/02/17 04:34:27;;;;;;;32.65;18.48;;;5.90;99.90;;;;;;4921557;29;20264;-78
2023/02/17 04:36:54;;;;;;;30.65;19.25;;;5.80;99.90;;;;;;4923919;29;20205;-79
2023/02/17 04:39:21;;;;;;;29.77;19.38;;;6.00;99.90;;;;;;4920200;29;20211;-79
2023/02/17 04:41:49;;;;;;;28.77;20.55;;;5.90;99.90;;;;;;4911155;29;20209;-79
2023/02/17 04:44:15;;;;;;;24.42;16.00;;;6.00;99.90;;;;;;4916955;29;20497;-80
2023/02/17 04:46:42;;;;;;;31.20;19.10;;;5.90;99.90;;;;;;4927041;29;20434;-79
2023/02/17 04:49:09;;;;;;;26.42;18.27;;;5.90;99.90;;;;;;4927032;29;20233;-79
2023/02/17 04:51:36;;;;;;;28.02;17.38;;;5.80;99.90;;;;;;4929325;29;20228;-80
2023/02/17 04:54:03;;;;;;;31.73;20.48;;;6.00;99.90;;;;;;4916858;29;20224;-80
2023/02/17 04:56:30;;;;;;;32.58;18.75;;;5.90;99.90;;;;;;4926631;29;20401;-79
2023/02/17 04:58:57;;;;;;;33.10;21.13;;;5.90;99.90;;;;;;4921310;29;20200;-78
2023/02/17 05:01:24;;;;;;;31.02;19.48;;;5.80;99.90;;;;;;4919256;29;20259;-79
2023/02/17 05:03:51;;;;;;;27.42;18.05;;;6.20;99.90;;;;;;4920049;29;20421;-79
2023/02/17 05:06:18;;;;;;;33.90;17.92;;;6.00;99.90;;;;;;4927681;29;20255;-79
2023/02/17 05:08:47;;;;;;;29.10;17.95;;;6.00;99.90;;;;;;4924447;29;21504;-80
2023/02/17 05:11:13;;;;;;;30.83;17.60;;;6.00;99.90;;;;;;4922830;29;20218;-77
2023/02/17 05:13:41;;;;;;;30.92;19.30;;;6.40;99.90;;;;;;4926130;29;20406;-79
2023/02/17 05:16:07;;;;;;;29.17;18.70;;;6.20;99.90;;;;;;4927580;29;20496;-80
2023/02/17 05:18:35;;;;;;;37.80;21.00;;;5.90;99.90;;;;;;4927530;29;20216;-79
2023/02/17 05:21:01;;;;;;;32.03;20.55;;;6.10;99.90;;;;;;4927500;29;20201;-81
2023/02/17 05:23:28;;;;;;;36.83;20.63;;;6.00;99.90;;;;;;4920642;29;20208;-80
2023/02/17 05:25:55;;;;;;;39.75;22.30;;;6.00;99.90;;;;;;4927141;29;20205;-79
2023/02/17 05:28:22;;;;;;;34.05;21.38;;;5.90;99.90;;;;;;4927288;29;20523;-79
2023/02/17 05:30:50;;;;;;;33.38;19.33;;;6.10;99.90;;;;;;4914219;29;20488;-80
2023/02/17 05:33:16;;;;;;;28.02;19.50;;;6.20;99.90;;;;;;4922538;29;20228;-78
2023/02/17 05:35:43;;;;;;;30.15;19.17;;;6.50;99.90;;;;;;4920337;29;20204;-80
2023/02/17 05:38:10;;;;;;;26.42;18.00;;;6.30;99.90;;;;;;4922409;29;20557;-80
2023/02/17 05:40:38;;;;;;;27.90;17.20;;;6.30;99.90;;;;;;4924330;29;20237;-81
2023/02/17 05:43:06;;;;;;;28.55;20.52;;;6.40;99.90;;;;;;4916686;29;20254;-81
2023/02/17 05:45:33;;;;;;;29.67;19.33;;;6.60;99.90;;;;;;4917813;29;20209;-78
2023/02/17 05:48:00;;;;;;;26.15;17.17;;;6.70;99.90;;;;;;4922488;29;20217;-77
2023/02/17 05:50:27;;;;;;;34.67;17.75;;;6.50;99.90;;;;;;4916502;29;20212;-81
2023/02/17 05:52:54;;;;;;;30.40;18.45;;;6.40;99.90;;;;;;4919308;29;20213;-78
2023/02/17 05:55:21;;;;;;;29.75;17.25;;;6.50;99.90;;;;;;4917717;29;20297;-80
2023/02/17 05:57:48;;;;;;;26.38;18.05;;;6.50;99.90;;;;;;4923393;29;20213;-79
2023/02/17 06:00:15;;;;;;;35.00;20.45;;;6.60;99.90;;;;;;4922036;29;20229;-79
2023/02/17 06:02:42;;;;;;;26.27;17.77;;;6.70;99.90;;;;;;4923677;29;20253;-79
2023/02/17 06:05:09;;;;;;;38.55;21.95;;;6.60;99.90;;;;;;4926361;29;20260;-80
2023/02/17 06:07:37;;;;;;;30.52;18.80;;;6.40;99.90;;;;;;4928084;29;20205;-80
2023/02/17 06:10:05;;;;;;;28.20;18.63;;;6.40;99.90;;;;;;4918229;29;20314;-79
2023/02/17 06:12:31;;;;;;;27.63;18.05;;;6.60;99.90;;;;;;4919765;29;20435;-80
2023/02/17 06:14:58;;;;;;;29.35;19.05;;;6.70;99.90;;;;;;4925077;29;20201;-79
2023/02/17 06:17:26;;;;;;;29.08;19.02;;;6.80;99.90;;;;;;4919475;29;20216;-78
2023/02/17 06:19:52;;;;;;;39.40;20.77;;;6.80;99.90;;;;;;4923295;29;20213;-80
2023/02/17 06:22:20;;;;;;;33.35;20.23;;;6.80;99.90;;;;;;4932940;29;20200;-80
2023/02/17 06:24:46;;;;;;;33.28;20.85;;;6.90;99.90;;;;;;4912219;29;20210;-80
2023/02/17 06:27:13;;;;;;;32.17;21.08;;;7.00;99.90;;;;;;4923841;29;20209;-79
2023/02/17 06:29:40;;;;;;;34.25;20.40;;;7.00;99.90;;;;;;4923321;29;20439;-79
2023/02/17 06:32:07;;;;;;;33.97;23.17;;;7.10;99.90;;;;;;4929241;29;20200;-78
2023/02/17 06:34:34;;;;;;;33.85;22.50;;;6.90;99.90;;;;;;4922063;29;20292;-80
2023/02/17 06:37:01;;;;;;;36.80;22.75;;;6.60;99.90;;;;;;4915942;29;20204;-80
2023/02/17 06:39:28;;;;;;;38.65;25.08;;;6.40;99.90;;;;;;4925659;29;20236;-79
2023/02/17 06:41:55;;;;;;;38.67;23.63;;;6.60;99.90;;;;;;4911752;29;20435;-78
2023/02/17 06:44:22;;;;;;;41.67;24.02;;;6.90;99.90;;;;;;4930450;29;20204;-80
2023/02/17 06:46:49;;;;;;;35.90;21.42;;;6.60;99.90;;;;;;4925206;29;20204;-78
2023/02/17 06:49:16;;;;;;;43.95;24.75;;;6.40;99.90;;;;;;4923337;29;20469;-78
2023/02/17 06:51:43;;;;;;;46.80;23.17;;;6.30;99.90;;;;;;4910509;29;20206;-79
2023/02/17 06:54:10;;;;;;;42.60;24.33;;;6.50;99.90;;;;;;4922534;29;20552;-79
2023/02/17 06:56:37;;;;;;;36.90;22.40;;;6.60;99.90;;;;;;4917060;29;20211;-79
2023/02/17 06:59:04;;;;;;;33.58;22.10;;;6.50;99.90;;;;;;4912739;29;20201;-79
2023/02/17 07:01:31;;;;;;;40.22;24.60;;;6.60;99.90;;;;;;4924306;29;20204;-79
2023/02/17 07:03:58;;;;;;;42.40;24.60;;;6.80;99.90;;;;;;4915319;29;20210;-79
2023/02/17 07:06:26;;;;;;;34.67;22.80;;;6.80;99.90;;;;;;4923354;29;20245;-79
2023/02/17 07:08:53;;;;;;;33.13;23.20;;;7.00;99.90;;;;;;4924957;29;20512;-79
2023/02/17 07:11:20;;;;;;;30.73;24.05;;;6.90;99.90;;;;;;4924981;29;20216;-80
2023/02/17 07:13:47;;;;;;;34.92;22.63;;;6.70;99.90;;;;;;4912035;29;20271;-80
2023/02/17 07:16:14;;;;;;;31.33;20.77;;;6.80;99.90;;;;;;4924903;29;20386;-79
2023/02/17 07:18:41;;;;;;;34.53;21.83;;;6.90;99.90;;;;;;4909406;29;20393;-79
2023/02/17 07:21:08;;;;;;;33.28;23.17;;;7.10;99.90;;;;;;4919864;29;20221;-80
2023/02/17 07:23:37;;;;;;;32.55;22.05;;;6.90;99.90;;;;;;4912910;29;20240;-81
2023/02/17 07:26:09;;;;;;;35.40;21.27;;;6.90;99.90;;;;;;4921523;29;20200;-81
2023/02/17 07:28:38;;;;;;;29.80;22.67;;;6.80;99.90;;;;;;4924477;29;20520;-79
2023/02/17 07:31:11;;;;;;;33.10;20.73;;;6.80;99.90;;;;;;4924301;29;20208;-80
2023/02/17 07:33:39;;;;;;;35.67;20.88;;;6.80;99.90;;;;;;4924219;29;20303;-81
2023/02/17 07:36:12;;;;;;;31.88;19.90;;;6.90;99.90;;;;;;4917052;29;20453;-80
2023/02/17 07:38:41;;;;;;;33.63;22.00;;;6.80;99.90;;;;;;4864250;29;1475127;-81
2023/02/17 07:41:14;;;;;;;38.60;24.10;;;6.90;99.90;;;;;;4927445;29;20248;-81
2023/02/17 07:43:41;;;;;;;38.97;21.70;;;7.00;99.90;;;;;;4914399;29;20213;-79
2023/02/17 07:46:09;;;;;;;34.63;21.40;;;7.10;99.90;;;;;;4915295;29;20252;-78
2023/02/17 07:48:37;;;;;;;31.88;20.48;;;7.20;99.90;;;;;;4922352;29;20237;-80
2023/02/17 07:51:11;;;;;;;30.27;21.98;;;7.20;99.90;;;;;;4925495;29;20201;-80
2023/02/17 07:53:39;;;;;;;32.05;20.30;;;7.30;99.90;;;;;;4917224;29;20277;-79
2023/02/17 07:56:09;;;;;;;34.50;18.95;;;7.40;99.90;;;;;;4923620;29;20230;-79
2023/02/17 07:58:39;;;;;;;33.03;20.95;;;7.50;99.90;;;;;;4919950;29;20264;-80
2023/02/17 08:01:10;;;;;;;31.65;18.65;;;7.50;99.90;;;;;;4917606;29;20198;-78
2023/02/17 08:03:38;;;;;;;31.45;20.83;;;7.60;99.90;;;;;;4922267;29;20514;-80
2023/02/17 08:06:10;;;;;;;30.08;21.15;;;7.70;99.90;;;;;;4921159;29;20217;-80
2023/02/17 08:14:11;;;;;;;33.90;19.08;;;7.80;99.90;;;;;;4917614;29;20238;-79
2023/02/17 08:16:39;;;;;;;28.48;19.80;;;7.90;99.90;;;;;;4918433;29;20206;-79
2023/02/17 08:19:06;;;;;;;32.22;19.73;;;8.00;99.90;;;;;;4928546;29;20204;-79
2023/02/17 08:21:34;;;;;;;33.50;21.27;;;8.00;99.90;;;;;;4932153;29;20214;-79
2023/02/17 08:24:00;;;;;;;41.47;20.67;;;8.00;99.90;;;;;;4923816;29;20254;-79
2023/02/17 08:26:28;;;;;;;39.67;20.58;;;8.00;99.90;;;;;;4925993;29;20209;-81
2023/02/17 08:28:55;;;;;;;34.95;21.65;;;8.00;99.90;;;;;;4928382;29;20233;-80
2023/02/17 08:31:28;;;;;;;43.63;20.30;;;8.30;99.90;;;;;;4928365;29;20202;-79
2023/02/17 08:33:55;;;;;;;35.08;23.75;;;8.40;99.90;;;;;;4919773;29;20560;-79
2023/02/17 08:36:23;;;;;;;35.15;20.17;;;8.60;99.90;;;;;;4922360;29;20444;-80
2023/02/17 08:38:52;;;;;;;28.85;19.67;;;8.90;99.90;;;;;;4924726;29;20228;-79
2023/02/17 08:41:28;;;;;;;27.45;16.95;;;9.10;99.90;;;;;;4922654;29;20510;-78
2023/02/17 08:43:56;;;;;;;21.80;17.75;;;9.20;99.90;;;;;;4916935;29;20278;-78
2023/02/17 08:46:24;;;;;;;28.73;18.90;;;9.10;99.90;;;;;;4922413;29;20204;-78
2023/02/17 08:48:51;;;;;;;29.88;16.95;;;9.20;99.90;;;;;;4922208;29;20207;-79
2023/02/17 08:51:24;;;;;;;27.95;17.52;;;9.20;99.90;;;;;;4921815;29;20539;-79
2023/02/17 08:53:54;;;;;;;25.23;17.92;;;8.90;99.90;;;;;;4926050;29;20231;-80
2023/02/17 08:56:23;;;;;;;26.50;17.27;;;8.90;99.90;;;;;;4927709;29;20293;-79
2023/02/17 08:58:50;;;;;;;25.15;18.77;;;8.70;99.90;;;;;;4927611;29;20346;-80
2023/02/17 09:01:17;;;;;;;29.73;19.50;;;8.90;99.90;;;;;;4928091;29;20246;-80
2023/02/17 09:03:46;;;;;;;27.23;19.17;;;9.00;99.90;;;;;;4927228;29;20239;-80
2023/02/17 09:06:14;;;;;;;26.70;17.98;;;9.30;99.90;;;;;;4922520;29;20213;-79
2023/02/17 09:08:42;;;;;;;26.58;18.45;;;9.50;99.90;;;;;;4927659;29;20213;-80
2023/02/17 09:11:09;;;;;;;23.13;16.15;;;9.60;99.90;;;;;;4927870;29;20203;-79
2023/02/17 09:13:37;;;;;;;31.15;18.88;;;9.70;99.90;;;;;;4927466;29;20243;-78
2023/02/17 09:16:04;;;;;;;24.65;16.50;;;9.70;99.90;;;;;;4920019;29;20208;-79
2023/02/17 09:18:32;;;;;;;24.95;16.42;;;9.80;99.90;;;;;;4924279;29;20219;-79
2023/02/17 09:21:06;;;;;;;28.17;15.45;;;9.80;99.90;;;;;;4926118;29;20207;-80
2023/02/17 09:23:33;;;;;;;28.17;17.27;;;10.20;99.90;;;;;;4923479;29;20223;-79
2023/02/17 09:26:05;;;;;;;22.50;16.90;;;10.20;99.90;;;;;;4925699;29;20244;-80
2023/02/17 09:28:34;;;;;;;23.40;17.80;;;10.30;99.90;;;;;;4918876;29;20247;-79
2023/02/17 09:31:13;;;;;;;23.30;15.43;;;10.00;99.90;;;;;;4921747;29;20207;-80
2023/02/17 09:33:41;;;;;;;26.23;16.33;;;10.00;99.90;;;;;;4921832;29;20239;-79
2023/02/17 09:36:12;;;;;;;20.45;14.93;;;10.20;99.90;;;;;;4923512;29;20239;-80
2023/02/17 09:38:40;;;;;;;23.33;16.30;;;10.10;99.90;;;;;;4923631;29;20249;-78
2023/02/17 09:41:13;;;;;;;23.38;15.80;;;9.90;99.90;;;;;;4915396;29;20207;-79
2023/02/17 09:43:41;;;;;;;21.90;17.85;;;9.80;99.90;;;;;;4923943;29;20212;-80
2023/02/17 09:46:15;;;;;;;25.92;16.27;;;9.80;99.90;;;;;;4919994;29;20215;-81
2023/02/17 09:48:45;;;;;;;25.98;14.88;;;10.00;99.90;;;;;;4924295;29;20211;-79
2023/02/17 09:51:18;;;;;;;24.88;15.43;;;10.00;99.90;;;;;;4920846;29;20284;-80
2023/02/17 09:54:04;;;;;;;21.25;15.70;;;10.10;99.90;;;;;;4927140;29;20222;-79
2023/02/17 09:56:38;;;;;;;22.88;16.67;;;10.10;99.90;;;;;;4921011;29;20212;-80
2023/02/17 09:59:18;;;;;;;24.38;15.88;;;10.00;99.90;;;;;;4926918;29;20218;-81
2023/02/17 10:01:47;;;;;;;22.27;13.52;;;10.00;99.90;;;;;;4931575;29;20271;-81
2023/02/17 10:04:36;;;;;;;24.02;14.95;;;10.00;99.90;;;;;;4926413;29;20210;-79
2023/02/17 10:07:16;;;;;;;22.08;14.90;;;9.80;99.90;;;;;;4926295;29;20351;-79
2023/02/17 10:09:54;;;;;;;26.80;15.93;;;9.80;99.90;;;;;;4925618;29;20211;-80
2023/02/17 10:12:25;;;;;;;24.02;16.17;;;9.90;99.90;;;;;;4926881;29;20187;-81
2023/02/17 10:14:56;;;;;;;20.45;15.18;;;9.80;99.90;;;;;;4918807;29;20239;-80
2023/02/17 10:17:42;;;;;;;19.40;13.82;;;9.80;99.90;;;;;;4926909;29;20372;-81
2023/02/17 10:20:15;;;;;;;23.45;13.43;;;9.80;99.90;;;;;;4925866;29;20271;-80
2023/02/17 10:22:46;;;;;;;19.92;14.63;;;10.10;99.90;;;;;;4918737;29;20211;-78
2023/02/17 10:25:40;;;;;;;20.58;14.40;;;10.00;99.90;;;;;;4923373;29;20200;-79
2023/02/17 10:28:15;;;;;;;21.73;13.73;;;10.00;99.90;;;;;;4911237;29;20207;-78
2023/02/17 10:30:59;;;;;;;20.25;13.60;;;10.30;99.90;;;;;;4926028;29;20226;-79
2023/02/17 10:33:32;;;;;;;18.65;14.25;;;10.00;99.90;;;;;;4919142;29;20427;-79
2023/02/17 10:36:14;;;;;;;19.80;13.05;;;10.10;99.90;;;;;;4918107;29;20256;-79
2023/02/17 10:38:51;;;;;;;19.30;13.25;;;10.20;99.90;;;;;;4925088;29;20219;-79
2023/02/17 10:41:31;;;;;;;20.33;13.60;;;10.30;99.90;;;;;;4911259;29;20209;-79
2023/02/17 10:44:01;;;;;;;20.85;12.55;;;10.50;99.90;;;;;;4921621;29;20200;-77
2023/02/17 10:46:31;;;;;;;17.55;12.50;;;10.50;99.90;;;;;;4914948;29;20204;-79
2023/02/17 10:48:59;;;;;;;23.40;12.82;;;10.60;99.90;;;;;;4920137;29;20205;-79
2023/02/17 10:51:29;;;;;;;12.63;9.90;;;10.50;99.90;;;;;;4913972;29;20209;-79
2023/02/17 10:54:07;;;;;;;14.55;11.40;;;10.70;99.90;;;;;;4923329;29;20227;-80
2023/02/17 10:56:39;;;;;;;17.95;12.23;;;10.70;99.90;;;;;;4926202;29;20231;-78
2023/02/17 10:59:18;;;;;;;15.60;10.70;;;10.60;99.90;;;;;;4917639;29;20263;-79
2023/02/17 11:01:46;;;;;;;15.02;11.88;;;10.70;99.90;;;;;;4918612;29;20223;-80
2023/02/17 11:04:13;;;;;;;15.57;11.43;;;10.70;99.90;;;;;;4917108;29;20296;-79
2023/02/17 11:06:53;;;;;;;15.23;11.73;;;10.70;99.90;;;;;;4913487;29;20259;-79
2023/02/17 11:09:30;;;;;;;17.90;10.93;;;10.70;99.90;;;;;;4918422;29;20504;-80
2023/02/17 11:12:01;;;;;;;23.20;11.43;;;10.70;99.90;;;;;;4913910;29;20200;-80
2023/02/17 11:14:31;;;;;;;16.40;11.43;;;10.60;99.90;;;;;;4919577;29;20280;-80
2023/02/17 11:17:00;;;;;;;16.67;11.07;;;10.70;99.90;;;;;;4919577;29;20259;-80
2023/02/17 11:19:29;;;;;;;16.83;10.57;;;10.80;99.90;;;;;;4920326;29;20451;-80
2023/02/17 11:21:57;;;;;;;16.67;11.43;;;11.00;99.90;;;;;;4921947;29;20521;-80
2023/02/17 11:24:26;;;;;;;17.42;11.27;;;11.00;99.90;;;;;;4919653;29;20251;-79
2023/02/17 11:26:56;;;;;;;13.80;12.10;;;11.10;99.90;;;;;;4925507;29;20211;-81
2023/02/17 11:29:24;;;;;;;12.50;10.85;;;11.30;99.90;;;;;;4925990;29;20200;-79
2023/02/17 11:32:06;;;;;;;12.65;10.27;;;11.20;99.90;;;;;;4924906;29;20228;-79
2023/02/17 11:34:37;;;;;;;15.57;11.80;;;11.20;99.90;;;;;;4920388;29;20227;-78
2023/02/17 11:37:13;;;;;;;15.18;9.55;;;11.50;99.90;;;;;;4924192;29;20208;-78
2023/02/17 11:39:43;;;;;;;14.07;9.35;;;11.40;99.90;;;;;;4918773;29;20212;-79
2023/02/17 11:42:29;;;;;;;11.82;9.57;;;11.40;99.90;;;;;;4924622;29;20244;-78
2023/02/17 11:44:59;;;;;;;9.85;8.70;;;11.50;99.90;;;;;;4919159;29;20215;-79
2023/02/17 11:47:31;;;;;;;14.32;10.55;;;11.90;99.90;;;;;;4921400;29;20223;-80
2023/02/17 11:50:05;;;;;;;10.95;8.32;;;11.90;99.90;;;;;;4922226;29;20233;-80
2023/02/17 11:53:17;;;;;;;10.20;8.48;;;11.70;99.90;;;;;;4930442;29;20212;-80
2023/02/17 11:56:07;;;;;;;10.95;8.85;;;12.00;99.90;;;;;;4897864;29;20232;-80
2023/02/17 11:58:53;;;;;;;11.40;8.48;;;12.30;99.90;;;;;;4922431;29;20206;-81
2023/02/17 12:02:01;;;;;;;9.82;8.43;;;12.30;99.90;;;;;;4928115;29;20252;-79
2023/02/17 12:04:31;;;;;;;11.32;8.32;;;12.20;99.90;;;;;;4917022;29;20339;-79
2023/02/17 12:07:17;;;;;;;9.88;7.55;;;12.30;99.90;;;;;;4939204;29;20202;-80
2023/02/17 12:09:52;;;;;;;9.07;7.38;;;12.50;99.90;;;;;;4929657;29;20378;-80
2023/02/17 12:12:28;;;;;;;9.30;6.22;;;12.60;99.90;;;;;;4918291;29;20236;-79
2023/02/17 12:15:00;;;;;;;9.18;6.25;;;12.60;99.90;;;;;;4928198;29;20227;-80
2023/02/17 12:17:41;;;;;;;12.70;7.90;;;12.70;99.90;;;;;;4911924;29;20207;-79
2023/02/17 12:20:30;;;;;;;11.15;6.95;;;12.50;99.90;;;;;;4919458;29;20296;-79
2023/02/17 12:23:11;;;;;;;8.90;7.18;;;12.40;99.90;;;;;;4923366;29;20200;-82
2023/02/17 12:26:08;;;;;;;10.82;7.10;;;12.10;99.90;;;;;;4909909;29;20216;-78
2023/02/17 12:29:03;;;;;;;9.30;7.60;;;12.00;99.90;;;;;;4925119;29;20241;-78
2023/02/17 12:31:58;;;;;;;9.30;7.15;;;11.80;99.90;;;;;;4921334;29;20358;-79
2023/02/17 12:34:42;;;;;;;8.80;6.60;;;11.60;99.90;;;;;;4928688;29;20212;-79
2023/02/17 12:37:22;;;;;;;8.75;6.10;;;11.60;99.90;;;;;;4926399;29;20200;-80
2023/02/17 12:39:53;;;;;;;12.23;6.93;;;11.50;99.90;;;;;;4925174;29;20213;-78
2023/02/17 12:42:47;;;;;;;8.90;6.50;;;11.60;99.90;;;;;;4939236;29;20212;-79
2023/02/17 12:45:35;;;;;;;8.70;6.70;;;11.40;99.90;;;;;;4921506;29;20205;-79
2023/02/17 12:48:37;;;;;;;10.00;7.45;;;11.40;99.90;;;;;;4919206;29;20208;-81
2023/02/17 12:51:15;;;;;;;11.02;7.13;;;11.30;99.90;;;;;;4912777;29;20204;-82
2023/02/17 12:53:55;;;;;;;9.65;7.35;;;11.30;99.90;;;;;;4914847;29;20569;-80
2023/02/17 12:56:27;;;;;;;8.75;6.72;;;11.40;99.90;;;;;;4920276;29;20528;-81
2023/02/17 12:59:00;;;;;;;10.75;7.60;;;11.60;99.90;;;;;;4917596;29;20240;-79
2023/02/17 13:01:31;;;;;;;10.43;8.05;;;11.40;99.90;;;;;;4919333;29;20236;-79
2023/02/17 13:04:01;;;;;;;8.25;7.45;;;11.40;99.90;;;;;;4928004;29;20201;-80